AirNav   Everest Fuels
 
 994 users online  

AZ69 Santa Cruz Valley Regional Hospital Heliport
Green Valley, Arizona, USA

GOING TO GREEN VALLEY?


FAA INFORMATION EFFECTIVE 08 SEPTEMBER 2022

Location

FAA Identifier: AZ69
Lat/Long: 31-48-26.0000N 111-00-34.0000W
31-48.433333N 111-00.566667W
31.8072222,-111.0094444
(estimated)
Elevation: 2970 ft. / 905.3 m (surveyed)
Variation: 13E (1985)
From city: 3 miles S of GREEN VALLEY, AZ
Time zone: UTC -7 (year round; does not observe DST)
Zip code: 85622

Heliport Operations

Heliport use: Private use. Permission required prior to landing
Activation date: 01/2016
Control tower: no
ARTCC: ALBUQUERQUE CENTER
FSS: PRESCOTT FLIGHT SERVICE STATION
Attendance: 
Wind indicator: lighted
Segmented circle: no
Lights: PHONE REQ
Beacon: white-green-yellow (heliport)
Operates sunset to sunrise.

Heliport Communications

WX ASOS at TUS (19 nm N): PHONE 520-295-5727

Nearby radio navigation aids

VOR radial/distance  VOR name  Freq  Var
TUSr184/17.9TUCSON VORTAC116.0012E
OLSr329/24.9NOGALES VOR/DME114.6512E
FHUr278/35.9LIBBY VOR/DME113.6013E

 
NDB name  Hdg/Dist  Freq  Var  ID
RYAN147/21.333812ERYN .-. -.-- -.
ROBLES120/24.022012ERBJ .-. -... .---
MARANA152/37.824512EAVQ .- ...- --.-

Heliport Services

Runway Information

Helipad H1

Dimensions: 43 x 43 ft. / 13 x 13 m
Surface: concrete/gravel, in good condition
Runway edge lights: PERI
Latitude: 31-48.433333N
Longitude: 111-00.566667W
Elevation: 2970.0 ft.
Traffic pattern: leftleft

Heliport Ownership and Management from official FAA records

Ownership: Privately-owned
Owner: SANTA CRUZ VALLEY REGIONAL HOSPITAL
4455 S. I-19 FRONTAGE ROAD
GREEN VALLEY, AZ 85614
Phone 520-393-4700
Manager: ROB ELLIOTT - DIR OF FACILITIES
4455 S. I-19 FRONTAGE ROAD
GREEN VALLEY, AZ 85614
Phone (520) 393-4781
ADMIN ASSIST: GAIL FOSTER 520-393-4782 GFOSTER@GREENVALLEYHOSPITAL.COM

Additional Remarks

FOR CD CTC ALBUQUERQUE ARTCC AT 505-856-4861.

Instrument Procedures

There are no published instrument procedures at AZ69.

Some nearby airports with instrument procedures:

KTUS - Tucson International Airport (19 nm N)
KRYN - Ryan Field Airport (22 nm NW)
KDMA - Davis Monthan Air Force Base (22 nm N)
KOLS - Nogales International Airport (25 nm S)
KFHU - Sierra Vista Municipal Airport-Libby Army Airfield (36 nm E)
 
Loc | Ops | Rwys | IFR | FBO | Links
Com | Nav | Svcs | Stats | Notes
Aerial photo
No photo
 
Airport distance calculator
Flying to Santa Cruz Valley Regional Hospital Heliport? Find the distance to fly.

From to AZ69

Sunrise and sunset
Times for 02-Oct-2022
 Local
(UTC-7)
 Zulu
(UTC)
Morning civil twilight05:5512:55
Sunrise06:2013:20
Sunset18:0701:07
Evening civil twilight18:3201:32

Current date and time
Zulu (UTC)  02-Oct-2022 21:01:20
Local (UTC-7)  02-Oct-2022 14:01:20
 
METAR
KTUS 
20nm N 
022053Z 29005KT 10SM CLR 31/11 A2996 RMK AO2 SLP099 T03110106 58019
KRYN 
22nm NW 
022045Z 00000KT 10SM CLR 32/10 A2993
KDMA 
23nm N 
022056Z AUTO 05006KT 10SM CLR 31/10 A2993 RMK AO2 SLP135 T03070101 57020 $
KOLS 
25nm S 
022054Z AUTO 17010KT 10SM CLR 31/10 A3002 RMK AO2 SLP103 T03060100 58018
KALK 
32nm E 
022056Z AUTO 14007KT 10SM SCT070 OVC110 24/09 A3010 RMK AO2 SLP111 T02440089 58015
KFHU 
37nm E 
022055Z AUTO 14007KT 9SM FEW070 OVC100 26/09 A3010 RMK AO2 SLP139 T02570086 57016 $
KAVQ 
38nm N 
022055Z AUTO 09005KT 10SM CLR 34/07 A2990 RMK AO2 T03390068
TAF
KTUS 
20nm N 
021720Z 0218/0318 17007KT P6SM FEW110 FM022200 21008KT P6SM SCT100 FM030300 15008KT P6SM SCT100
KDMA 
23nm N 
021906Z 0214/0320 16009KT 9999 SCT080 QNH2994INS BECMG 0220/0221 24009KT 9999 SCT080 QNH2992INS BECMG 0302/0303 VRB06KT 9999 SCT080 QNH2996INS BECMG 0307/0308 12006KT 9999 FEW090 QNH2997INS TX33/0221Z TN17/0312Z
NOTAMs
Click for the latest NOTAMs
NOTAMs are issued by the DoD/FAA and will open in a separate window not controlled by AirNav.

 

 
 

Would you like to see your business listed on this page?

 If your business provides an interesting product or service to pilots, flight crews, aircraft, or users of the Santa Cruz Valley Regional Hospital Heliport, you should consider listing it here.  To start the listing process, click on the button below
 
Add a business
 

Other Pages about Santa Cruz Valley Regional Hospital Heliport

Update a link
 
Copyright © AirNav, LLC. All rights reserved. Privacy Policy  Contact